sensor_id;sensor_type;location;lat;lon;timestamp;temperature;humidity
60495;DHT22;46342;49.046;11.920;2023-06-04T00:00:16;17.50;33.40
60495;DHT22;46342;49.046;11.920;2023-06-04T00:02:42;17.50;33.40
60495;DHT22;46342;49.046;11.920;2023-06-04T00:05:08;17.40;33.40
60495;DHT22;46342;49.046;11.920;2023-06-04T00:07:33;17.40;33.50
60495;DHT22;46342;49.046;11.920;2023-06-04T00:09:59;17.30;33.60
60495;DHT22;46342;49.046;11.920;2023-06-04T00:12:24;17.30;33.60
60495;DHT22;46342;49.046;11.920;2023-06-04T00:14:50;17.20;33.60
60495;DHT22;46342;49.046;11.920;2023-06-04T00:17:15;17.20;33.70
60495;DHT22;46342;49.046;11.920;2023-06-04T00:19:41;17.10;33.70
60495;DHT22;46342;49.046;11.920;2023-06-04T00:22:07;17.10;33.70
60495;DHT22;46342;49.046;11.920;2023-06-04T00:24:36;17.00;33.60
60495;DHT22;46342;49.046;11.920;2023-06-04T00:27:02;16.90;33.70
60495;DHT22;46342;49.046;11.920;2023-06-04T00:29:27;16.90;33.70
60495;DHT22;46342;49.046;11.920;2023-06-04T00:31:53;16.80;34.30
60495;DHT22;46342;49.046;11.920;2023-06-04T00:34:18;16.80;33.70
60495;DHT22;46342;49.046;11.920;2023-06-04T00:36:44;16.70;33.80
60495;DHT22;46342;49.046;11.920;2023-06-04T00:39:10;16.70;33.80
60495;DHT22;46342;49.046;11.920;2023-06-04T00:41:35;16.60;33.80
60495;DHT22;46342;49.046;11.920;2023-06-04T00:44:01;16.60;33.90
60495;DHT22;46342;49.046;11.920;2023-06-04T00:46:28;16.50;33.90
60495;DHT22;46342;49.046;11.920;2023-06-04T00:48:55;16.50;34.00
60495;DHT22;46342;49.046;11.920;2023-06-04T00:51:21;16.50;34.00
60495;DHT22;46342;49.046;11.920;2023-06-04T00:53:49;16.40;34.10
60495;DHT22;46342;49.046;11.920;2023-06-04T00:56:15;16.40;34.20
60495;DHT22;46342;49.046;11.920;2023-06-04T00:58:40;16.30;34.20
60495;DHT22;46342;49.046;11.920;2023-06-04T01:03:49;16.30;34.40
60495;DHT22;46342;49.046;11.920;2023-06-04T01:06:35;16.20;34.30
60495;DHT22;46342;49.046;11.920;2023-06-04T01:09:02;16.20;34.60
60495;DHT22;46342;49.046;11.920;2023-06-04T01:11:33;16.10;34.40
60495;DHT22;46342;49.046;11.920;2023-06-04T01:13:59;16.10;34.50
60495;DHT22;46342;49.046;11.920;2023-06-04T01:16:27;16.00;34.30
60495;DHT22;46342;49.046;11.920;2023-06-04T01:18:56;16.00;34.40
60495;DHT22;46342;49.046;11.920;2023-06-04T01:21:23;16.00;35.00
60495;DHT22;46342;49.046;11.920;2023-06-04T01:23:52;15.90;34.50
60495;DHT22;46342;49.046;11.920;2023-06-04T01:26:31;15.90;34.60
60495;DHT22;46342;49.046;11.920;2023-06-04T01:28:58;15.90;34.90
60495;DHT22;46342;49.046;11.920;2023-06-04T01:31:25;15.80;34.70
60495;DHT22;46342;49.046;11.920;2023-06-04T01:33:55;15.80;34.70
60495;DHT22;46342;49.046;11.920;2023-06-04T01:36:24;15.70;34.90
60495;DHT22;46342;49.046;11.920;2023-06-04T01:38:50;15.70;34.80
60495;DHT22;46342;49.046;11.920;2023-06-04T01:41:16;15.60;34.80
60495;DHT22;46342;49.046;11.920;2023-06-04T01:43:41;15.60;34.90
60495;DHT22;46342;49.046;11.920;2023-06-04T01:46:07;15.60;34.90
60495;DHT22;46342;49.046;11.920;2023-06-04T01:48:33;15.50;34.90
60495;DHT22;46342;49.046;11.920;2023-06-04T01:50:58;15.50;35.00
60495;DHT22;46342;49.046;11.920;2023-06-04T01:53:24;15.50;35.20
60495;DHT22;46342;49.046;11.920;2023-06-04T01:55:49;15.40;35.20
60495;DHT22;46342;49.046;11.920;2023-06-04T01:58:18;15.40;35.80
60495;DHT22;46342;49.046;11.920;2023-06-04T02:00:55;15.30;35.40
60495;DHT22;46342;49.046;11.920;2023-06-04T02:03:22;15.30;35.50
60495;DHT22;46342;49.046;11.920;2023-06-04T02:05:49;15.20;35.30
60495;DHT22;46342;49.046;11.920;2023-06-04T02:08:15;15.20;35.40
60495;DHT22;46342;49.046;11.920;2023-06-04T02:10:50;15.20;35.50
60495;DHT22;46342;49.046;11.920;2023-06-04T02:13:16;15.10;35.50
60495;DHT22;46342;49.046;11.920;2023-06-04T02:15:41;15.10;35.50
60495;DHT22;46342;49.046;11.920;2023-06-04T02:18:16;15.00;35.60
60495;DHT22;46342;49.046;11.920;2023-06-04T02:20:43;15.00;36.20
60495;DHT22;46342;49.046;11.920;2023-06-04T02:23:10;14.90;35.70
60495;DHT22;46342;49.046;11.920;2023-06-04T02:25:36;14.90;35.70
60495;DHT22;46342;49.046;11.920;2023-06-04T02:28:01;14.80;35.70
60495;DHT22;46342;49.046;11.920;2023-06-04T02:30:27;14.80;36.50
60495;DHT22;46342;49.046;11.920;2023-06-04T02:32:52;14.80;35.90
60495;DHT22;46342;49.046;11.920;2023-06-04T02:35:20;14.70;35.90
60495;DHT22;46342;49.046;11.920;2023-06-04T02:37:50;14.70;35.90
60495;DHT22;46342;49.046;11.920;2023-06-04T02:40:16;14.70;36.00
60495;DHT22;46342;49.046;11.920;2023-06-04T02:42:42;14.70;36.10
60495;DHT22;46342;49.046;11.920;2023-06-04T02:45:08;14.60;36.10
60495;DHT22;46342;49.046;11.920;2023-06-04T02:47:33;14.60;36.10
60495;DHT22;46342;49.046;11.920;2023-06-04T02:49:59;14.50;36.10
60495;DHT22;46342;49.046;11.920;2023-06-04T02:52:25;14.50;36.20
60495;DHT22;46342;49.046;11.920;2023-06-04T02:54:51;14.40;36.20
60495;DHT22;46342;49.046;11.920;2023-06-04T02:57:16;14.40;36.30
60495;DHT22;46342;49.046;11.920;2023-06-04T02:59:42;14.40;36.30
60495;DHT22;46342;49.046;11.920;2023-06-04T03:02:07;14.30;36.30
60495;DHT22;46342;49.046;11.920;2023-06-04T03:04:33;14.30;36.40
60495;DHT22;46342;49.046;11.920;2023-06-04T03:07:02;14.20;36.40
60495;DHT22;46342;49.046;11.920;2023-06-04T03:09:29;14.20;36.50
60495;DHT22;46342;49.046;11.920;2023-06-04T03:11:59;14.20;36.40
60495;DHT22;46342;49.046;11.920;2023-06-04T03:14:26;14.10;36.60
60495;DHT22;46342;49.046;11.920;2023-06-04T03:16:58;14.10;36.50
60495;DHT22;46342;49.046;11.920;2023-06-04T03:19:26;14.10;36.60
60495;DHT22;46342;49.046;11.920;2023-06-04T03:21:53;14.00;36.60
60495;DHT22;46342;49.046;11.920;2023-06-04T03:24:19;14.10;36.80
60495;DHT22;46342;49.046;11.920;2023-06-04T03:26:44;14.00;36.90
60495;DHT22;46342;49.046;11.920;2023-06-04T03:29:10;14.00;36.90
60495;DHT22;46342;49.046;11.920;2023-06-04T03:31:37;13.90;36.90
60495;DHT22;46342;49.046;11.920;2023-06-04T03:34:02;13.90;36.90
60495;DHT22;46342;49.046;11.920;2023-06-04T03:36:30;13.90;37.00
60495;DHT22;46342;49.046;11.920;2023-06-04T03:38:57;13.90;37.20
60495;DHT22;46342;49.046;11.920;2023-06-04T03:41:22;13.80;37.10
60495;DHT22;46342;49.046;11.920;2023-06-04T03:43:48;13.80;37.10
60495;DHT22;46342;49.046;11.920;2023-06-04T03:46:14;13.80;37.30
60495;DHT22;46342;49.046;11.920;2023-06-04T03:48:41;13.70;37.30
60495;DHT22;46342;49.046;11.920;2023-06-04T03:51:07;13.70;37.40
60495;DHT22;46342;49.046;11.920;2023-06-04T03:53:32;13.70;37.40
60495;DHT22;46342;49.046;11.920;2023-06-04T03:55:58;13.70;37.50
60495;DHT22;46342;49.046;11.920;2023-06-04T03:58:23;13.60;37.60
60495;DHT22;46342;49.046;11.920;2023-06-04T04:00:49;13.60;37.70
60495;DHT22;46342;49.046;11.920;2023-06-04T04:03:15;13.60;37.70
60495;DHT22;46342;49.046;11.920;2023-06-04T04:05:41;13.60;37.80
60495;DHT22;46342;49.046;11.920;2023-06-04T04:08:06;13.60;37.90
60495;DHT22;46342;49.046;11.920;2023-06-04T04:10:34;13.50;37.90
60495;DHT22;46342;49.046;11.920;2023-06-04T04:12:59;13.50;37.90
60495;DHT22;46342;49.046;11.920;2023-06-04T04:15:25;13.50;37.90
60495;DHT22;46342;49.046;11.920;2023-06-04T04:17:51;13.50;38.10
60495;DHT22;46342;49.046;11.920;2023-06-04T04:20:16;13.50;38.10
60495;DHT22;46342;49.046;11.920;2023-06-04T04:22:43;13.50;38.20
60495;DHT22;46342;49.046;11.920;2023-06-04T04:25:09;13.40;38.10
60495;DHT22;46342;49.046;11.920;2023-06-04T04:27:34;13.50;38.30
60495;DHT22;46342;49.046;11.920;2023-06-04T04:30:05;13.40;38.20
60495;DHT22;46342;49.046;11.920;2023-06-04T04:32:31;13.40;38.30
60495;DHT22;46342;49.046;11.920;2023-06-04T04:34:57;13.40;38.40
60495;DHT22;46342;49.046;11.920;2023-06-04T04:37:22;13.40;38.40
60495;DHT22;46342;49.046;11.920;2023-06-04T04:39:49;13.40;38.40
60495;DHT22;46342;49.046;11.920;2023-06-04T04:42:18;13.40;38.60
60495;DHT22;46342;49.046;11.920;2023-06-04T04:44:44;13.40;38.60
60495;DHT22;46342;49.046;11.920;2023-06-04T04:47:13;13.40;38.60
60495;DHT22;46342;49.046;11.920;2023-06-04T04:49:39;13.40;38.70
60495;DHT22;46342;49.046;11.920;2023-06-04T04:52:04;13.40;38.70
60495;DHT22;46342;49.046;11.920;2023-06-04T04:54:30;13.50;38.80
60495;DHT22;46342;49.046;11.920;2023-06-04T04:56:55;13.50;38.90
60495;DHT22;46342;49.046;11.920;2023-06-04T04:59:21;13.50;39.50
60495;DHT22;46342;49.046;11.920;2023-06-04T05:01:46;13.50;38.90
60495;DHT22;46342;49.046;11.920;2023-06-04T05:04:12;13.50;38.90
60495;DHT22;46342;49.046;11.920;2023-06-04T05:06:38;13.50;38.90
60495;DHT22;46342;49.046;11.920;2023-06-04T05:09:03;13.60;39.10
60495;DHT22;46342;49.046;11.920;2023-06-04T05:11:29;13.70;39.30
60495;DHT22;46342;49.046;11.920;2023-06-04T05:13:55;13.70;39.30
60495;DHT22;46342;49.046;11.920;2023-06-04T05:16:20;13.70;39.20
60495;DHT22;46342;49.046;11.920;2023-06-04T05:18:48;13.80;39.40
60495;DHT22;46342;49.046;11.920;2023-06-04T05:21:17;13.80;39.40
60495;DHT22;46342;49.046;11.920;2023-06-04T05:23:43;13.80;39.40
60495;DHT22;46342;49.046;11.920;2023-06-04T05:26:10;13.90;39.60
60495;DHT22;46342;49.046;11.920;2023-06-04T05:28:36;14.00;39.60
60495;DHT22;46342;49.046;11.920;2023-06-04T05:31:01;14.00;39.60
60495;DHT22;46342;49.046;11.920;2023-06-04T05:33:29;14.00;39.60
60495;DHT22;46342;49.046;11.920;2023-06-04T05:35:55;14.00;39.50
60495;DHT22;46342;49.046;11.920;2023-06-04T05:38:23;14.10;39.50
60495;DHT22;46342;49.046;11.920;2023-06-04T05:40:51;14.10;39.50
60495;DHT22;46342;49.046;11.920;2023-06-04T05:43:17;14.30;40.20
60495;DHT22;46342;49.046;11.920;2023-06-04T05:45:43;14.30;39.40
60495;DHT22;46342;49.046;11.920;2023-06-04T05:48:09;14.30;39.50
60495;DHT22;46342;49.046;11.920;2023-06-04T05:50:34;14.30;39.50
60495;DHT22;46342;49.046;11.920;2023-06-04T05:53:00;14.40;39.60
60495;DHT22;46342;49.046;11.920;2023-06-04T05:55:27;14.40;39.80
60495;DHT22;46342;49.046;11.920;2023-06-04T05:57:53;14.50;39.90
60495;DHT22;46342;49.046;11.920;2023-06-04T06:00:19;14.50;39.80
60495;DHT22;46342;49.046;11.920;2023-06-04T06:02:45;14.60;39.90
60495;DHT22;46342;49.046;11.920;2023-06-04T06:05:14;14.60;39.90
60495;DHT22;46342;49.046;11.920;2023-06-04T06:07:40;14.70;40.00
60495;DHT22;46342;49.046;11.920;2023-06-04T06:10:06;14.70;40.00
60495;DHT22;46342;49.046;11.920;2023-06-04T06:12:32;14.80;40.00
60495;DHT22;46342;49.046;11.920;2023-06-04T06:14:57;14.90;40.10
60495;DHT22;46342;49.046;11.920;2023-06-04T06:17:23;14.90;40.10
60495;DHT22;46342;49.046;11.920;2023-06-04T06:19:49;15.00;40.20
60495;DHT22;46342;49.046;11.920;2023-06-04T06:22:15;15.00;40.20
60495;DHT22;46342;49.046;11.920;2023-06-04T06:24:41;15.10;40.80
60495;DHT22;46342;49.046;11.920;2023-06-04T06:27:06;15.20;40.30
60495;DHT22;46342;49.046;11.920;2023-06-04T06:29:32;15.20;40.30
60495;DHT22;46342;49.046;11.920;2023-06-04T06:31:58;15.30;40.30
60495;DHT22;46342;49.046;11.920;2023-06-04T06:34:24;15.40;40.30
60495;DHT22;46342;49.046;11.920;2023-06-04T06:36:50;15.40;40.30
60495;DHT22;46342;49.046;11.920;2023-06-04T06:39:16;15.50;40.40
60495;DHT22;46342;49.046;11.920;2023-06-04T06:41:41;15.50;40.40
60495;DHT22;46342;49.046;11.920;2023-06-04T06:44:07;15.60;40.50
60495;DHT22;46342;49.046;11.920;2023-06-04T06:46:33;15.60;40.60
60495;DHT22;46342;49.046;11.920;2023-06-04T06:48:59;15.80;40.70
60495;DHT22;46342;49.046;11.920;2023-06-04T06:51:24;15.80;40.70
60495;DHT22;46342;49.046;11.920;2023-06-04T06:53:50;15.80;40.60
60495;DHT22;46342;49.046;11.920;2023-06-04T06:56:18;15.90;40.60
60495;DHT22;46342;49.046;11.920;2023-06-04T06:58:44;16.00;40.70
60495;DHT22;46342;49.046;11.920;2023-06-04T07:01:11;16.10;40.80
60495;DHT22;46342;49.046;11.920;2023-06-04T07:03:37;16.20;40.70
60495;DHT22;46342;49.046;11.920;2023-06-04T07:06:05;16.20;40.70
60495;DHT22;46342;49.046;11.920;2023-06-04T07:08:31;16.40;40.80
60495;DHT22;46342;49.046;11.920;2023-06-04T07:10:57;16.40;40.70
60495;DHT22;46342;49.046;11.920;2023-06-04T07:13:23;16.40;40.70
60495;DHT22;46342;49.046;11.920;2023-06-04T07:15:48;16.60;40.70
60495;DHT22;46342;49.046;11.920;2023-06-04T07:18:14;16.60;40.70
60495;DHT22;46342;49.046;11.920;2023-06-04T07:20:40;16.70;40.90
60495;DHT22;46342;49.046;11.920;2023-06-04T07:23:05;16.80;40.80
60495;DHT22;46342;49.046;11.920;2023-06-04T07:25:32;16.80;40.80
60495;DHT22;46342;49.046;11.920;2023-06-04T07:27:58;17.00;41.00
60495;DHT22;46342;49.046;11.920;2023-06-04T07:30:26;17.10;41.00
60495;DHT22;46342;49.046;11.920;2023-06-04T07:32:52;17.10;40.90
60495;DHT22;46342;49.046;11.920;2023-06-04T07:35:17;17.20;41.00
60495;DHT22;46342;49.046;11.920;2023-06-04T07:37:43;17.30;41.10
60495;DHT22;46342;49.046;11.920;2023-06-04T07:40:11;17.40;41.00
60495;DHT22;46342;49.046;11.920;2023-06-04T07:42:37;17.50;41.00
60495;DHT22;46342;49.046;11.920;2023-06-04T07:45:03;17.50;40.90
60495;DHT22;46342;49.046;11.920;2023-06-04T07:47:29;17.60;40.90
60495;DHT22;46342;49.046;11.920;2023-06-04T07:49:55;17.70;40.90
60495;DHT22;46342;49.046;11.920;2023-06-04T07:52:20;17.80;41.00
60495;DHT22;46342;49.046;11.920;2023-06-04T07:54:46;18.00;41.10
60495;DHT22;46342;49.046;11.920;2023-06-04T07:57:11;18.00;41.00
60495;DHT22;46342;49.046;11.920;2023-06-04T07:59:37;18.10;41.10
60495;DHT22;46342;49.046;11.920;2023-06-04T08:02:03;18.20;41.00
60495;DHT22;46342;49.046;11.920;2023-06-04T08:04:29;18.30;41.10
60495;DHT22;46342;49.046;11.920;2023-06-04T08:06:55;18.40;41.10
60495;DHT22;46342;49.046;11.920;2023-06-04T08:09:21;18.50;41.10
60495;DHT22;46342;49.046;11.920;2023-06-04T08:11:47;18.60;41.10
60495;DHT22;46342;49.046;11.920;2023-06-04T08:14:12;18.70;41.20
60495;DHT22;46342;49.046;11.920;2023-06-04T08:16:38;18.80;41.20
60495;DHT22;46342;49.046;11.920;2023-06-04T08:19:04;18.90;41.10
60495;DHT22;46342;49.046;11.920;2023-06-04T08:21:30;19.10;41.00
60495;DHT22;46342;49.046;11.920;2023-06-04T08:23:55;19.20;40.90
60495;DHT22;46342;49.046;11.920;2023-06-04T08:26:22;19.30;40.80
60495;DHT22;46342;49.046;11.920;2023-06-04T08:28:48;19.40;41.40
60495;DHT22;46342;49.046;11.920;2023-06-04T08:31:14;19.50;40.70
60495;DHT22;46342;49.046;11.920;2023-06-04T08:33:40;19.50;40.70
60495;DHT22;46342;49.046;11.920;2023-06-04T08:36:06;19.70;40.70
60495;DHT22;46342;49.046;11.920;2023-06-04T08:38:32;19.70;40.50
60495;DHT22;46342;49.046;11.920;2023-06-04T08:43:36;20.00;40.70
60495;DHT22;46342;49.046;11.920;2023-06-04T08:46:05;20.10;39.90
60495;DHT22;46342;49.046;11.920;2023-06-04T08:48:34;20.10;39.60
60495;DHT22;46342;49.046;11.920;2023-06-04T08:51:02;20.30;39.80
60495;DHT22;46342;49.046;11.920;2023-06-04T08:53:30;20.40;39.70
60495;DHT22;46342;49.046;11.920;2023-06-04T08:55:55;20.50;39.60
60495;DHT22;46342;49.046;11.920;2023-06-04T08:58:21;20.60;40.20
60495;DHT22;46342;49.046;11.920;2023-06-04T09:00:48;20.70;39.50
60495;DHT22;46342;49.046;11.920;2023-06-04T09:03:15;20.80;39.50
60495;DHT22;46342;49.046;11.920;2023-06-04T09:05:41;20.90;39.40
60495;DHT22;46342;49.046;11.920;2023-06-04T09:08:14;21.00;39.50
60495;DHT22;46342;49.046;11.920;2023-06-04T09:10:41;21.10;39.50
60495;DHT22;46342;49.046;11.920;2023-06-04T09:13:08;21.30;39.40
60495;DHT22;46342;49.046;11.920;2023-06-04T09:15:35;21.40;39.00
60495;DHT22;46342;49.046;11.920;2023-06-04T09:18:00;21.50;38.90
60495;DHT22;46342;49.046;11.920;2023-06-04T09:20:27;21.60;38.80
60495;DHT22;46342;49.046;11.920;2023-06-04T09:22:53;21.80;38.70
60495;DHT22;46342;49.046;11.920;2023-06-04T09:25:26;21.90;38.70
60495;DHT22;46342;49.046;11.920;2023-06-04T09:27:53;22.00;38.40
60495;DHT22;46342;49.046;11.920;2023-06-04T09:30:20;22.10;38.60
60495;DHT22;46342;49.046;11.920;2023-06-04T09:32:45;22.20;38.60
60495;DHT22;46342;49.046;11.920;2023-06-04T09:35:16;22.30;38.40
60495;DHT22;46342;49.046;11.920;2023-06-04T09:37:43;22.40;38.40
60495;DHT22;46342;49.046;11.920;2023-06-04T09:40:16;22.50;38.20
60495;DHT22;46342;49.046;11.920;2023-06-04T09:42:43;22.60;38.20
60495;DHT22;46342;49.046;11.920;2023-06-04T09:45:09;22.70;38.00
60495;DHT22;46342;49.046;11.920;2023-06-04T09:47:40;22.80;37.70
60495;DHT22;46342;49.046;11.920;2023-06-04T09:50:06;22.90;37.40
60495;DHT22;46342;49.046;11.920;2023-06-04T09:52:33;23.00;37.50
60495;DHT22;46342;49.046;11.920;2023-06-04T09:54:59;23.00;37.20
60495;DHT22;46342;49.046;11.920;2023-06-04T09:57:25;23.10;37.20
60495;DHT22;46342;49.046;11.920;2023-06-04T09:59:54;23.20;37.20
60495;DHT22;46342;49.046;11.920;2023-06-04T10:02:21;23.20;37.10
60495;DHT22;46342;49.046;11.920;2023-06-04T10:04:56;23.30;37.00
60495;DHT22;46342;49.046;11.920;2023-06-04T10:07:24;23.50;36.60
60495;DHT22;46342;49.046;11.920;2023-06-04T10:09:50;23.50;36.70
60495;DHT22;46342;49.046;11.920;2023-06-04T10:12:17;23.70;36.60
60495;DHT22;46342;49.046;11.920;2023-06-04T10:14:52;23.70;36.50
60495;DHT22;46342;49.046;11.920;2023-06-04T10:17:22;23.80;36.10
60495;DHT22;46342;49.046;11.920;2023-06-04T10:19:49;23.90;36.10
60495;DHT22;46342;49.046;11.920;2023-06-04T10:22:17;24.00;36.10
60495;DHT22;46342;49.046;11.920;2023-06-04T10:24:44;24.10;36.00
60495;DHT22;46342;49.046;11.920;2023-06-04T10:27:10;24.10;35.70
60495;DHT22;46342;49.046;11.920;2023-06-04T10:29:38;24.20;35.50
60495;DHT22;46342;49.046;11.920;2023-06-04T10:32:04;24.30;35.50
60495;DHT22;46342;49.046;11.920;2023-06-04T10:34:30;24.40;35.60
60495;DHT22;46342;49.046;11.920;2023-06-04T10:36:56;24.40;35.50
60495;DHT22;46342;49.046;11.920;2023-06-04T10:39:29;24.50;35.50
60495;DHT22;46342;49.046;11.920;2023-06-04T10:42:02;24.60;35.20
60495;DHT22;46342;49.046;11.920;2023-06-04T10:44:30;24.80;35.20
60495;DHT22;46342;49.046;11.920;2023-06-04T10:46:57;24.80;35.40
60495;DHT22;46342;49.046;11.920;2023-06-04T10:49:26;25.00;35.40
60495;DHT22;46342;49.046;11.920;2023-06-04T10:51:53;25.10;35.20
60495;DHT22;46342;49.046;11.920;2023-06-04T10:54:24;25.20;35.40
60495;DHT22;46342;49.046;11.920;2023-06-04T10:56:51;25.30;34.60
60495;DHT22;46342;49.046;11.920;2023-06-04T10:59:18;25.40;34.90
60495;DHT22;46342;49.046;11.920;2023-06-04T11:01:44;25.50;34.70
60495;DHT22;46342;49.046;11.920;2023-06-04T11:06:45;25.70;33.50
60495;DHT22;46342;49.046;11.920;2023-06-04T11:09:13;25.70;34.40
60495;DHT22;46342;49.046;11.920;2023-06-04T11:11:41;25.80;34.20
60495;DHT22;46342;49.046;11.920;2023-06-04T11:14:08;25.90;34.40
60495;DHT22;46342;49.046;11.920;2023-06-04T11:16:34;26.00;34.20
60495;DHT22;46342;49.046;11.920;2023-06-04T11:19:00;26.10;34.10
60495;DHT22;46342;49.046;11.920;2023-06-04T11:21:25;26.20;33.80
60495;DHT22;46342;49.046;11.920;2023-06-04T11:24:00;26.30;33.60
60495;DHT22;46342;49.046;11.920;2023-06-04T11:26:33;26.40;32.60
60495;DHT22;46342;49.046;11.920;2023-06-04T11:29:00;26.50;32.40
60495;DHT22;46342;49.046;11.920;2023-06-04T11:31:26;26.60;33.10
60495;DHT22;46342;49.046;11.920;2023-06-04T11:33:52;26.70;33.20
60495;DHT22;46342;49.046;11.920;2023-06-04T11:36:28;26.80;33.00
60495;DHT22;46342;49.046;11.920;2023-06-04T11:38:58;26.90;32.60
60495;DHT22;46342;49.046;11.920;2023-06-04T11:41:27;27.00;33.10
60495;DHT22;46342;49.046;11.920;2023-06-04T11:43:53;27.10;32.40
60495;DHT22;46342;49.046;11.920;2023-06-04T11:46:20;27.10;32.50
60495;DHT22;46342;49.046;11.920;2023-06-04T11:48:46;27.20;33.00
60495;DHT22;46342;49.046;11.920;2023-06-04T11:51:12;27.20;32.20
60495;DHT22;46342;49.046;11.920;2023-06-04T11:53:38;27.30;32.40
60495;DHT22;46342;49.046;11.920;2023-06-04T11:56:05;27.40;32.50
60495;DHT22;46342;49.046;11.920;2023-06-04T11:58:31;27.40;32.30
60495;DHT22;46342;49.046;11.920;2023-06-04T12:00:58;27.60;32.50
60495;DHT22;46342;49.046;11.920;2023-06-04T12:03:38;27.70;32.20
60495;DHT22;46342;49.046;11.920;2023-06-04T12:08:54;27.90;30.90
60495;DHT22;46342;49.046;11.920;2023-06-04T12:11:34;28.00;31.00
60495;DHT22;46342;49.046;11.920;2023-06-04T12:14:04;28.00;31.50
60495;DHT22;46342;49.046;11.920;2023-06-04T12:16:31;28.00;31.10
60495;DHT22;46342;49.046;11.920;2023-06-04T12:21:32;28.20;30.10
60495;DHT22;46342;49.046;11.920;2023-06-04T12:26:34;28.40;30.50
60495;DHT22;46342;49.046;11.920;2023-06-04T12:29:16;28.40;30.80
60495;DHT22;46342;49.046;11.920;2023-06-04T12:31:46;28.50;29.90
60495;DHT22;46342;49.046;11.920;2023-06-04T12:34:13;28.50;30.20
60495;DHT22;46342;49.046;11.920;2023-06-04T12:36:39;28.50;30.20
60495;DHT22;46342;49.046;11.920;2023-06-04T12:39:05;28.60;30.30
60495;DHT22;46342;49.046;11.920;2023-06-04T12:41:33;28.60;30.40
60495;DHT22;46342;49.046;11.920;2023-06-04T12:43:59;28.60;30.20
60495;DHT22;46342;49.046;11.920;2023-06-04T12:46:25;28.60;30.30
60495;DHT22;46342;49.046;11.920;2023-06-04T12:48:52;28.70;30.10
60495;DHT22;46342;49.046;11.920;2023-06-04T12:51:18;28.70;30.00
60495;DHT22;46342;49.046;11.920;2023-06-04T12:53:45;28.80;30.00
60495;DHT22;46342;49.046;11.920;2023-06-04T12:56:10;28.80;30.00
60495;DHT22;46342;49.046;11.920;2023-06-04T12:58:37;28.80;30.00
60495;DHT22;46342;49.046;11.920;2023-06-04T13:01:03;28.90;30.00
60495;DHT22;46342;49.046;11.920;2023-06-04T13:03:32;29.00;30.00
60495;DHT22;46342;49.046;11.920;2023-06-04T13:05:58;29.10;29.70
60495;DHT22;46342;49.046;11.920;2023-06-04T13:08:24;29.20;29.90
60495;DHT22;46342;49.046;11.920;2023-06-04T13:10:51;29.20;29.70
60495;DHT22;46342;49.046;11.920;2023-06-04T13:13:17;29.30;29.60
60495;DHT22;46342;49.046;11.920;2023-06-04T13:15:43;29.30;29.50
60495;DHT22;46342;49.046;11.920;2023-06-04T13:18:09;29.40;29.40
60495;DHT22;46342;49.046;11.920;2023-06-04T13:20:36;29.40;29.10
60495;DHT22;46342;49.046;11.920;2023-06-04T13:23:02;29.40;29.10
60495;DHT22;46342;49.046;11.920;2023-06-04T13:25:27;29.40;28.90
60495;DHT22;46342;49.046;11.920;2023-06-04T13:27:58;29.40;28.70
60495;DHT22;46342;49.046;11.920;2023-06-04T13:30:24;29.30;28.60
60495;DHT22;46342;49.046;11.920;2023-06-04T13:32:50;29.40;28.70
60495;DHT22;46342;49.046;11.920;2023-06-04T13:35:15;29.30;28.50
60495;DHT22;46342;49.046;11.920;2023-06-04T13:37:41;29.30;28.40
60495;DHT22;46342;49.046;11.920;2023-06-04T13:40:07;29.40;28.40
60495;DHT22;46342;49.046;11.920;2023-06-04T13:42:33;29.40;28.40
60495;DHT22;46342;49.046;11.920;2023-06-04T13:44:59;29.40;28.60
60495;DHT22;46342;49.046;11.920;2023-06-04T13:47:25;29.40;28.70
60495;DHT22;46342;49.046;11.920;2023-06-04T13:49:51;29.50;28.80
60495;DHT22;46342;49.046;11.920;2023-06-04T13:52:16;29.60;28.70
60495;DHT22;46342;49.046;11.920;2023-06-04T13:54:42;29.70;28.80
60495;DHT22;46342;49.046;11.920;2023-06-04T13:57:08;29.70;28.60
60495;DHT22;46342;49.046;11.920;2023-06-04T13:59:37;29.80;28.50
60495;DHT22;46342;49.046;11.920;2023-06-04T14:02:02;29.90;28.50
60495;DHT22;46342;49.046;11.920;2023-06-04T14:04:28;29.90;28.30
60495;DHT22;46342;49.046;11.920;2023-06-04T14:06:54;30.00;28.30
60495;DHT22;46342;49.046;11.920;2023-06-04T14:09:19;30.00;28.20
60495;DHT22;46342;49.046;11.920;2023-06-04T14:11:45;30.10;28.10
60495;DHT22;46342;49.046;11.920;2023-06-04T14:14:18;30.10;28.10
60495;DHT22;46342;49.046;11.920;2023-06-04T14:16:47;30.10;28.00
60495;DHT22;46342;49.046;11.920;2023-06-04T14:19:13;30.20;27.90
60495;DHT22;46342;49.046;11.920;2023-06-04T14:21:39;30.20;28.10
60495;DHT22;46342;49.046;11.920;2023-06-04T14:24:05;30.30;28.30
60495;DHT22;46342;49.046;11.920;2023-06-04T14:26:31;30.30;28.10
60495;DHT22;46342;49.046;11.920;2023-06-04T14:28:57;30.30;27.80
60495;DHT22;46342;49.046;11.920;2023-06-04T14:31:23;30.30;27.60
60495;DHT22;46342;49.046;11.920;2023-06-04T14:33:49;30.30;27.50
60495;DHT22;46342;49.046;11.920;2023-06-04T14:36:14;30.30;27.50
60495;DHT22;46342;49.046;11.920;2023-06-04T14:38:40;30.30;27.50
60495;DHT22;46342;49.046;11.920;2023-06-04T14:41:06;30.30;27.50
60495;DHT22;46342;49.046;11.920;2023-06-04T14:43:32;30.30;27.50
60495;DHT22;46342;49.046;11.920;2023-06-04T14:45:57;30.30;27.50
60495;DHT22;46342;49.046;11.920;2023-06-04T14:48:23;30.30;27.50
60495;DHT22;46342;49.046;11.920;2023-06-04T14:50:49;30.30;27.60
60495;DHT22;46342;49.046;11.920;2023-06-04T14:53:18;30.30;27.50
60495;DHT22;46342;49.046;11.920;2023-06-04T14:55:44;30.30;27.40
60495;DHT22;46342;49.046;11.920;2023-06-04T14:58:10;30.30;27.40
60495;DHT22;46342;49.046;11.920;2023-06-04T15:00:36;30.30;27.40
60495;DHT22;46342;49.046;11.920;2023-06-04T15:03:02;30.30;27.50
60495;DHT22;46342;49.046;11.920;2023-06-04T15:05:27;30.30;27.40
60495;DHT22;46342;49.046;11.920;2023-06-04T15:07:53;30.30;27.20
60495;DHT22;46342;49.046;11.920;2023-06-04T15:10:19;30.30;27.20
60495;DHT22;46342;49.046;11.920;2023-06-04T15:12:44;30.20;27.20
60495;DHT22;46342;49.046;11.920;2023-06-04T15:15:10;30.20;27.20
60495;DHT22;46342;49.046;11.920;2023-06-04T15:17:36;30.20;27.40
60495;DHT22;46342;49.046;11.920;2023-06-04T15:20:03;30.20;27.40
60495;DHT22;46342;49.046;11.920;2023-06-04T15:22:28;30.30;27.40
60495;DHT22;46342;49.046;11.920;2023-06-04T15:24:54;30.30;27.30
60495;DHT22;46342;49.046;11.920;2023-06-04T15:27:19;30.30;27.40